Time;durP1;ratioP1;P1;durP2;ratioP2;P2;SDS_P1;SDS_P2;PMS_P1;PMS_P2;Temp;Humidity;BMP_temperature;BMP_pressure;BME280_temperature;BME280_humidity;BME280_pressure;Samples;Min_cycle;Max_cycle;Signal;HPM_P1;HPM_P2
2022/07/30 00:00:00;;;;;;;13.77;6.18;;;14.80;99.90;;;;;;6152624;23;20353;-85
2022/07/30 00:02:32;;;;;;;12.65;6.65;;;15.10;99.90;;;;;;6153680;23;20097;-85
2022/07/30 00:05:12;;;;;;;11.40;5.82;;;15.70;99.90;;;;;;6153066;23;20076;-84
2022/07/30 00:07:46;;;;;;;13.13;6.03;;;15.00;99.90;;;;;;6154576;23;20386;-84
2022/07/30 00:10:19;;;;;;;11.20;5.90;;;15.20;99.90;;;;;;6153657;23;20419;-85
2022/07/30 00:13:00;;;;;;;11.18;6.32;;;14.90;99.90;;;;;;6154594;23;20025;-85
2022/07/30 00:15:26;;;;;;;13.32;5.95;;;15.70;99.90;;;;;;6154626;23;20056;-85
2022/07/30 00:17:57;;;;;;;11.45;5.88;;;14.80;99.90;;;;;;6153379;23;20032;-85
2022/07/30 00:20:41;;;;;;;15.07;6.30;;;15.40;99.90;;;;;;6152799;23;20048;-85
2022/07/30 00:23:13;;;;;;;;;;;15.30;99.90;;;;;;6153847;23;20041;-85
2022/07/30 00:25:54;;;;;;;11.60;6.30;;;14.80;99.90;;;;;;6155304;23;20337;-85
2022/07/30 00:28:37;;;;;;;13.35;7.30;;;15.50;99.90;;;;;;6154651;23;20013;-85
2022/07/30 00:31:17;;;;;;;13.50;6.80;;;14.60;99.90;;;;;;6155203;23;20060;-85
2022/07/30 00:33:43;;;;;;;14.15;7.20;;;14.70;99.90;;;;;;6153077;23;20026;-85
2022/07/30 00:36:09;;;;;;;12.45;6.57;;;15.30;99.90;;;;;;6152316;23;20021;-85
2022/07/30 00:38:34;;;;;;;13.20;6.70;;;15.10;99.90;;;;;;6154821;23;20014;-84
2022/07/30 00:41:00;;;;;;;13.73;7.35;;;15.50;99.90;;;;;;6154131;23;20025;-85
2022/07/30 00:43:25;;;;;;;13.10;7.10;;;15.50;99.90;;;;;;6155292;23;20076;-84
2022/07/30 00:45:51;;;;;;;15.05;7.57;;;14.60;99.90;;;;;;6152174;23;20362;-84
2022/07/30 00:48:42;;;;;;;13.10;6.90;;;15.40;99.90;;;;;;6153518;23;20053;-85
2022/07/30 00:51:08;;;;;;;12.05;6.68;;;14.60;99.90;;;;;;6153252;23;20022;-85
2022/07/30 00:53:34;;;;;;;13.10;7.75;;;14.50;99.90;;;;;;6153257;23;20092;-85
2022/07/30 00:56:01;;;;;;;12.82;6.90;;;14.60;99.90;;;;;;6154121;23;20093;-85
2022/07/30 00:58:27;;;;;;;15.88;7.13;;;14.50;99.90;;;;;;6153415;23;20020;-85
2022/07/30 01:00:53;;;;;;;15.50;7.55;;;14.60;99.90;;;;;;6153624;23;20017;-85
2022/07/30 01:03:19;;;;;;;13.68;7.30;;;14.80;99.90;;;;;;6154366;23;20041;-84
2022/07/30 01:05:45;;;;;;;13.45;8.15;;;14.40;99.90;;;;;;6153111;23;20022;-85
2022/07/30 01:08:11;;;;;;;14.07;7.32;;;14.40;99.90;;;;;;6156827;23;20009;-86
2022/07/30 01:10:37;;;;;;;13.68;7.93;;;14.40;99.90;;;;;;6154855;23;20017;-85
2022/07/30 01:13:05;;;;;;;14.45;8.02;;;14.40;99.90;;;;;;6153891;23;20029;-85
2022/07/30 01:15:31;;;;;;;12.48;7.38;;;14.40;99.90;;;;;;6155252;23;20021;-84
2022/07/30 01:18:00;;;;;;;15.10;7.72;;;14.40;99.90;;;;;;6153811;23;20009;-84
2022/07/30 01:20:37;;;;;;;14.38;7.10;;;14.60;99.90;;;;;;6153178;23;20386;-84
2022/07/30 01:23:28;;;;;;;13.73;7.78;;;14.30;99.90;;;;;;6154598;23;20025;-85
2022/07/30 01:26:02;;;;;;;13.52;7.90;;;14.30;99.90;;;;;;6154826;23;20041;-84
2022/07/30 01:28:32;;;;;;;14.40;7.47;;;14.30;99.90;;;;;;6155323;23;20024;-84
2022/07/30 01:31:03;;;;;;;15.23;8.82;;;14.30;99.90;;;;;;6153690;23;20014;-85
2022/07/30 01:33:30;;;;;;;14.05;8.55;;;14.30;99.90;;;;;;6156313;23;20485;-85
2022/07/30 01:35:57;;;;;;;13.23;7.90;;;14.20;99.90;;;;;;6154746;23;20021;-85
2022/07/30 01:38:26;;;;;;;14.18;8.20;;;14.30;99.90;;;;;;6153926;23;20018;-84
2022/07/30 01:40:53;;;;;;;15.50;7.57;;;14.20;99.90;;;;;;6156080;23;20022;-84
2022/07/30 01:43:21;;;;;;;13.65;8.00;;;14.20;99.90;;;;;;6162997;23;20021;-84
2022/07/30 01:45:50;;;;;;;14.02;8.07;;;14.30;99.90;;;;;;6154199;23;20018;-84
2022/07/30 01:48:19;;;;;;;15.38;7.72;;;14.80;99.90;;;;;;6154942;23;20021;-84
2022/07/30 01:50:47;;;;;;;15.43;8.45;;;14.80;99.90;;;;;;6154642;23;20028;-84
2022/07/30 01:53:21;;;;;;;14.23;8.30;;;14.10;99.90;;;;;;6155796;23;20327;-85
2022/07/30 01:55:48;;;;;;;14.80;7.85;;;14.10;99.90;;;;;;6156503;23;20021;-84
2022/07/30 01:58:16;;;;;;;15.27;7.53;;;14.00;99.90;;;;;;6156229;23;20390;-84
2022/07/30 02:00:43;;;;;;;12.95;7.40;;;14.00;99.90;;;;;;6154881;23;20438;-84
2022/07/30 02:03:10;;;;;;;12.88;7.70;;;14.00;99.90;;;;;;6152812;23;20347;-84
2022/07/30 02:05:37;;;;;;;15.55;7.88;;;13.60;99.90;;;;;;6153522;23;20630;-84
2022/07/30 02:08:29;;;;;;;14.27;7.38;;;14.00;99.90;;;;;;6154844;23;20060;-84
2022/07/30 02:11:05;;;;;;;14.85;9.38;;;14.00;99.90;;;;;;6154731;23;20076;-85
2022/07/30 02:13:51;;;;;;;16.05;8.75;;;14.90;99.90;;;;;;6155423;23;20022;-84
2022/07/30 02:16:37;;;;;;;16.58;8.88;;;14.70;99.90;;;;;;6154486;23;20024;-84
2022/07/30 02:19:38;;;;;;;14.25;8.48;;;13.80;99.90;;;;;;6155692;23;20044;-84
2022/07/30 02:22:07;;;;;;;15.80;9.07;;;13.90;99.90;;;;;;6147765;23;20021;-84
2022/07/30 02:24:35;;;;;;;15.35;9.00;;;14.50;99.90;;;;;;6156550;23;20086;-84
2022/07/30 02:27:06;;;;;;;15.45;9.07;;;13.90;99.90;;;;;;6153370;23;20013;-84
2022/07/30 02:29:34;;;;;;;16.40;8.73;;;13.80;99.90;;;;;;6154867;23;20017;-84
2022/07/30 02:32:04;;;;;;;14.57;8.38;;;13.80;99.90;;;;;;6156068;23;20427;-84
2022/07/30 02:34:33;;;;;;;15.60;8.15;;;13.80;99.90;;;;;;6155249;23;20013;-85
2022/07/30 02:37:01;;;;;;;13.90;7.80;;;13.80;99.90;;;;;;6153987;23;20022;-85
2022/07/30 02:39:29;;;;;;;15.88;8.38;;;13.80;99.90;;;;;;6155985;23;20020;-84
2022/07/30 02:41:56;;;;;;;15.10;8.20;;;13.70;99.90;;;;;;6155916;23;20339;-84
2022/07/30 02:44:23;;;;;;;15.25;8.45;;;13.70;99.90;;;;;;6156109;23;20045;-84
2022/07/30 02:46:50;;;;;;;15.82;8.55;;;13.70;99.90;;;;;;6154296;23;20029;-85
2022/07/30 02:49:18;;;;;;;16.17;8.13;;;13.70;99.90;;;;;;6154968;23;20013;-84
2022/07/30 02:51:46;;;;;;;16.23;8.60;;;13.60;99.90;;;;;;6153956;23;20128;-85
2022/07/30 02:54:15;;;;;;;13.68;8.48;;;13.70;99.90;;;;;;6154907;23;20018;-85
2022/07/30 02:56:41;;;;;;;18.45;9.82;;;13.60;99.90;;;;;;6155194;23;20048;-84
2022/07/30 02:59:09;;;;;;;14.88;9.00;;;13.60;99.90;;;;;;6155998;23;20438;-84
2022/07/30 03:01:35;;;;;;;17.30;9.65;;;13.60;99.90;;;;;;6153077;23;20468;-84
2022/07/30 03:04:02;;;;;;;16.40;8.93;;;13.60;99.90;;;;;;6156720;23;20020;-84
2022/07/30 03:06:29;;;;;;;14.93;9.43;;;13.90;99.90;;;;;;6153987;23;20522;-84
2022/07/30 03:09:11;;;;;;;16.83;9.23;;;13.80;99.90;;;;;;6152779;23;20025;-85
2022/07/30 03:11:39;;;;;;;14.98;9.32;;;14.40;99.90;;;;;;6154146;23;20025;-84
2022/07/30 03:14:06;;;;;;;18.80;9.75;;;13.60;99.90;;;;;;6153727;23;20470;-84
2022/07/30 03:16:35;;;;;;;16.40;9.75;;;13.50;99.90;;;;;;6153276;23;20025;-84
2022/07/30 03:19:02;;;;;;;16.50;8.88;;;13.50;99.90;;;;;;6155492;23;20013;-84
2022/07/30 03:21:31;;;;;;;16.98;9.18;;;14.10;99.90;;;;;;6155869;23;20017;-84
2022/07/30 03:23:59;;;;;;;17.83;9.95;;;13.50;99.90;;;;;;6154727;23;20017;-84
2022/07/30 03:26:26;;;;;;;16.63;9.35;;;13.50;99.90;;;;;;6156073;23;20020;-84
2022/07/30 03:28:52;;;;;;;15.68;9.27;;;13.50;99.90;;;;;;6153693;23;20021;-84
2022/07/30 03:31:18;;;;;;;16.15;9.05;;;13.50;99.90;;;;;;6153233;23;20104;-84
2022/07/30 03:33:45;;;;;;;14.57;8.60;;;13.50;99.90;;;;;;6153538;23;20044;-84
2022/07/30 03:36:13;;;;;;;17.63;9.43;;;13.50;99.90;;;;;;6153998;23;20068;-84
2022/07/30 03:38:40;;;;;;;14.43;8.45;;;13.40;99.90;;;;;;6153188;23;20024;-84
2022/07/30 03:41:07;;;;;;;16.83;8.95;;;13.80;99.90;;;;;;6153603;23;20043;-84
2022/07/30 03:43:34;;;;;;;17.02;9.80;;;13.40;99.90;;;;;;6153821;23;20014;-85
2022/07/30 03:46:04;;;;;;;18.05;9.07;;;13.40;99.90;;;;;;6152988;23;20022;-84
2022/07/30 03:48:32;;;;;;;17.42;9.80;;;13.40;99.90;;;;;;6153739;23;20049;-84
2022/07/30 03:50:58;;;;;;;18.42;10.55;;;13.30;99.90;;;;;;6152416;23;20516;-84
2022/07/30 03:53:26;;;;;;;18.38;10.60;;;13.30;99.90;;;;;;6155839;23;20067;-84
2022/07/30 03:55:52;;;;;;;17.33;10.55;;;13.30;99.90;;;;;;6155090;23;20084;-83
2022/07/30 03:58:18;;;;;;;17.42;10.23;;;13.30;99.90;;;;;;6154816;23;20438;-83
2022/07/30 04:00:48;;;;;;;18.25;10.40;;;13.50;99.90;;;;;;6153091;23;20013;-83
2022/07/30 04:03:25;;;;;;;17.77;9.98;;;13.60;99.90;;;;;;6155088;23;20018;-83
2022/07/30 04:05:50;;;;;;;16.85;10.05;;;13.20;99.90;;;;;;6153158;23;20024;-83
2022/07/30 04:08:16;;;;;;;17.52;9.65;;;13.20;99.90;;;;;;6155507;23;20022;-83
2022/07/30 04:10:42;;;;;;;18.45;10.65;;;13.20;99.90;;;;;;6152746;23;20017;-83
2022/07/30 04:13:09;;;;;;;18.70;10.05;;;13.50;99.90;;;;;;6152382;23;20021;-83
2022/07/30 04:15:44;;;;;;;17.13;9.98;;;13.20;99.90;;;;;;6155462;23;20450;-84
2022/07/30 04:18:11;;;;;;;19.08;10.13;;;13.20;99.90;;;;;;6155071;23;20020;-83
2022/07/30 04:20:44;;;;;;;20.90;10.32;;;13.20;99.90;;;;;;6153592;23;20342;-83
2022/07/30 04:23:11;;;;;;;17.67;9.38;;;13.20;99.90;;;;;;6153582;23;20024;-83
2022/07/30 04:25:39;;;;;;;15.38;9.45;;;13.30;99.90;;;;;;6153662;23;20053;-84
2022/07/30 04:28:05;;;;;;;16.08;9.57;;;13.30;99.90;;;;;;6152421;23;20018;-83
2022/07/30 04:30:33;;;;;;;16.40;9.95;;;13.30;99.90;;;;;;6153520;23;20068;-84
2022/07/30 04:33:00;;;;;;;19.50;10.40;;;13.30;99.90;;;;;;6152811;23;20452;-85
2022/07/30 04:35:30;;;;;;;16.55;10.00;;;13.30;99.90;;;;;;6153220;23;20025;-84
2022/07/30 04:37:56;;;;;;;18.10;10.73;;;13.30;99.90;;;;;;6153328;23;20349;-84
2022/07/30 04:40:22;;;;;;;21.52;12.07;;;13.30;99.90;;;;;;6153190;23;20053;-84
2022/07/30 04:42:47;;;;;;;17.13;10.30;;;13.40;99.90;;;;;;6154973;23;20040;-84
2022/07/30 04:45:13;;;;;;;19.10;11.40;;;13.40;99.90;;;;;;6155052;23;20017;-84
2022/07/30 04:47:38;;;;;;;17.80;10.75;;;13.50;99.90;;;;;;6154743;23;20014;-84
2022/07/30 04:50:08;;;;;;;21.17;11.20;;;13.90;99.90;;;;;;6152812;23;20100;-83
2022/07/30 04:52:35;;;;;;;19.50;11.32;;;13.70;99.90;;;;;;6153999;23;20010;-83
2022/07/30 04:55:06;;;;;;;19.02;11.43;;;14.10;99.90;;;;;;6153831;23;20059;-84
2022/07/30 04:57:34;;;;;;;19.63;11.68;;;13.80;99.90;;;;;;6155934;23;20045;-84
2022/07/30 05:00:00;;;;;;;17.92;11.20;;;13.90;99.90;;;;;;6153304;23;20077;-84
2022/07/30 05:02:29;;;;;;;18.67;11.05;;;14.00;99.90;;;;;;6155362;23;20055;-84
2022/07/30 05:04:56;;;;;;;18.67;11.55;;;14.20;99.90;;;;;;6154649;23;20085;-84
2022/07/30 05:07:22;;;;;;;19.02;12.02;;;14.20;99.90;;;;;;6157547;23;20014;-84
2022/07/30 05:09:48;;;;;;;18.58;11.18;;;14.20;99.90;;;;;;6155643;23;20092;-84
2022/07/30 05:12:14;;;;;;;19.80;10.77;;;15.00;99.90;;;;;;6157275;23;20049;-84
2022/07/30 05:14:40;;;;;;;18.45;11.50;;;14.50;99.90;;;;;;6157094;23;20029;-84
2022/07/30 05:17:06;;;;;;;21.70;11.32;;;14.40;99.90;;;;;;6154608;23;20017;-84
2022/07/30 05:19:32;;;;;;;20.60;11.98;;;14.50;99.90;;;;;;6157845;23;20072;-84
2022/07/30 05:21:58;;;;;;;20.77;12.32;;;14.60;99.90;;;;;;6155430;23;20375;-85
2022/07/30 05:24:23;;;;;;;20.55;12.63;;;14.70;99.90;;;;;;6160315;23;20014;-84
2022/07/30 05:26:49;;;;;;;21.23;13.18;;;14.70;99.90;;;;;;6161938;23;20390;-84
2022/07/30 05:29:15;;;;;;;20.95;13.05;;;14.80;99.90;;;;;;6157596;23;20100;-84
2022/07/30 05:31:40;;;;;;;24.58;13.32;;;14.90;99.90;;;;;;6157806;23;20021;-84
2022/07/30 05:34:06;;;;;;;21.95;13.25;;;15.30;99.90;;;;;;6157491;23;20101;-84
2022/07/30 05:36:32;;;;;;;22.02;13.23;;;15.00;99.90;;;;;;6158065;23;20064;-84
2022/07/30 05:38:59;;;;;;;20.20;13.10;;;15.10;99.90;;;;;;6156393;23;20089;-84
2022/07/30 05:41:26;;;;;;;19.15;13.43;;;15.20;99.90;;;;;;6157109;23;20040;-84
2022/07/30 05:43:52;;;;;;;23.35;13.05;;;15.30;99.90;;;;;;6158316;23;20013;-84
2022/07/30 05:46:18;;;;;;;19.83;12.70;;;15.50;99.90;;;;;;6158069;23;20025;-84
2022/07/30 05:48:44;;;;;;;21.23;12.38;;;15.40;99.90;;;;;;6158804;23;20018;-85
2022/07/30 05:51:09;;;;;;;20.83;12.75;;;15.40;99.90;;;;;;6157919;23;20041;-84
2022/07/30 05:53:35;;;;;;;19.48;12.63;;;15.70;99.90;;;;;;6159762;23;20074;-85
2022/07/30 05:56:00;;;;;;;20.75;13.02;;;15.60;99.90;;;;;;6157316;23;20104;-85
2022/07/30 05:58:26;;;;;;;19.15;12.25;;;15.70;99.90;;;;;;6159778;23;20076;-84
2022/07/30 06:00:52;;;;;;;20.17;12.75;;;15.70;99.90;;;;;;6158076;23;20096;-81
2022/07/30 06:03:17;;;;;;;22.40;12.45;;;16.40;99.90;;;;;;6160784;23;20069;-81
2022/07/30 06:05:43;;;;;;;19.23;12.10;;;16.20;99.90;;;;;;6158868;23;20403;-83
2022/07/30 06:08:08;;;;;;;19.05;11.95;;;15.90;99.90;;;;;;6159340;23;20057;-83
2022/07/30 06:10:34;;;;;;;21.27;11.38;;;16.00;99.90;;;;;;6133876;23;20028;-83
2022/07/30 06:13:00;;;;;;;17.70;10.52;;;16.10;99.90;;;;;;6156495;23;20018;-83
2022/07/30 06:15:26;;;;;;;16.40;9.93;;;16.50;99.90;;;;;;6157152;23;20104;-82
2022/07/30 06:17:51;;;;;;;15.80;9.93;;;16.20;99.90;;;;;;6160079;23;20018;-82
2022/07/30 06:20:18;;;;;;;16.83;10.18;;;16.30;99.90;;;;;;6157725;23;20321;-82
2022/07/30 06:22:45;;;;;;;16.00;9.20;;;16.30;99.90;;;;;;6156600;23;20021;-82
2022/07/30 06:25:11;;;;;;;15.63;9.05;;;16.30;99.90;;;;;;6157647;23;20036;-81
2022/07/30 06:27:37;;;;;;;15.13;8.55;;;16.50;99.90;;;;;;6158608;23;20092;-82
2022/07/30 06:30:05;;;;;;;15.95;9.13;;;16.30;99.90;;;;;;6132112;23;20025;-81
2022/07/30 06:32:31;;;;;;;13.35;8.50;;;16.40;99.90;;;;;;6157638;23;20018;-79
2022/07/30 06:34:57;;;;;;;14.30;8.40;;;16.80;99.90;;;;;;6158544;23;20017;-82
2022/07/30 06:37:23;;;;;;;15.43;8.73;;;16.60;99.90;;;;;;6160562;23;20024;-83
2022/07/30 06:39:48;;;;;;;13.90;8.25;;;16.70;99.90;;;;;;6158296;23;20037;-81
2022/07/30 06:42:14;;;;;;;13.23;8.20;;;16.70;99.90;;;;;;6158700;23;20018;-81
2022/07/30 06:44:41;;;;;;;14.35;8.15;;;16.90;99.90;;;;;;6156212;23;20052;-80
2022/07/30 06:47:06;;;;;;;14.38;7.82;;;17.00;99.90;;;;;;6157351;23;20014;-80
2022/07/30 06:49:34;;;;;;;13.30;7.90;;;17.30;99.90;;;;;;6158846;23;20013;-80
2022/07/30 06:52:00;;;;;;;14.95;8.10;;;17.10;99.90;;;;;;6157432;23;20014;-80
2022/07/30 06:54:26;;;;;;;12.65;7.78;;;17.20;99.90;;;;;;6155884;23;20022;-80
2022/07/30 06:56:52;;;;;;;16.48;7.95;;;17.30;99.90;;;;;;6154034;23;20024;-80
2022/07/30 06:59:17;;;;;;;12.82;7.50;;;17.60;99.90;;;;;;6153880;23;20021;-79
2022/07/30 07:01:43;;;;;;;14.57;7.40;;;17.50;99.90;;;;;;6153076;23;20165;-80
2022/07/30 07:04:08;;;;;;;12.43;7.15;;;18.00;99.90;;;;;;6153976;23;20016;-79
2022/07/30 07:06:34;;;;;;;15.32;8.30;;;17.90;99.90;;;;;;6155924;23;20020;-81
2022/07/30 07:09:00;;;;;;;14.75;7.72;;;18.00;99.90;;;;;;6152470;23;20081;-80
2022/07/30 07:11:25;;;;;;;15.45;8.10;;;18.10;99.90;;;;;;6153899;23;20029;-80
2022/07/30 07:13:51;;;;;;;15.32;7.68;;;18.10;99.90;;;;;;6155153;23;20108;-82
2022/07/30 07:16:23;;;;;;;12.80;7.40;;;18.20;99.90;;;;;;6153047;23;20013;-81
2022/07/30 07:18:50;;;;;;;14.13;7.65;;;18.80;99.90;;;;;;6155421;23;20021;-81
2022/07/30 07:21:16;;;;;;;13.98;7.80;;;18.40;99.90;;;;;;6153914;23;20018;-82
2022/07/30 07:23:42;;;;;;;15.40;8.27;;;18.50;99.90;;;;;;6154648;23;20045;-80
2022/07/30 07:26:09;;;;;;;14.60;8.43;;;18.70;99.90;;;;;;6155290;23;20072;-80
2022/07/30 07:28:34;;;;;;;17.60;9.05;;;18.60;99.90;;;;;;6153734;23;20461;-81
2022/07/30 07:31:00;;;;;;;16.05;8.80;;;18.70;99.90;;;;;;6152334;23;20109;-80
2022/07/30 07:33:26;;;;;;;16.38;8.75;;;18.80;99.90;;;;;;6153614;23;20018;-80
2022/07/30 07:35:53;;;;;;;17.45;9.45;;;18.90;99.90;;;;;;6154279;23;20028;-81
2022/07/30 07:38:19;;;;;;;15.60;9.35;;;18.90;99.90;;;;;;6155464;23;20017;-80
2022/07/30 07:40:45;;;;;;;15.80;9.48;;;19.00;99.90;;;;;;6152725;23;20028;-81
2022/07/30 07:43:11;;;;;;;16.42;9.43;;;19.00;99.90;;;;;;6154209;23;20024;-80
2022/07/30 07:45:38;;;;;;;14.10;8.52;;;19.20;99.90;;;;;;6154765;23;20018;-80
2022/07/30 07:48:03;;;;;;;13.95;8.27;;;19.30;99.90;;;;;;6153044;23;20022;-80
2022/07/30 07:50:29;;;;;;;14.05;9.20;;;19.40;99.90;;;;;;6152615;23;20104;-80
2022/07/30 07:52:55;;;;;;;14.82;9.18;;;19.50;99.90;;;;;;6153428;23;20396;-80
2022/07/30 07:55:21;;;;;;;13.95;8.98;;;19.60;99.90;;;;;;6153294;23;20024;-80
2022/07/30 07:57:47;;;;;;;14.55;8.68;;;19.60;99.90;;;;;;6154293;23;20014;-80
2022/07/30 08:00:13;;;;;;;14.65;8.63;;;19.60;99.90;;;;;;6153605;23;20112;-80
2022/07/30 08:02:39;;;;;;;14.73;8.95;;;19.80;99.90;;;;;;6155031;23;20446;-81
2022/07/30 08:05:06;;;;;;;14.10;8.68;;;19.80;99.90;;;;;;6153951;23;20457;-81
2022/07/30 08:07:32;;;;;;;14.85;8.80;;;19.90;99.90;;;;;;6155023;23;20014;-83
2022/07/30 08:09:58;;;;;;;15.32;9.20;;;19.90;99.90;;;;;;6152376;23;20068;-82
2022/07/30 08:12:24;;;;;;;15.57;9.57;;;19.90;99.90;;;;;;6151948;23;20501;-82
2022/07/30 08:14:49;;;;;;;16.30;9.07;;;19.90;99.90;;;;;;6152695;23;20096;-82
2022/07/30 08:17:15;;;;;;;14.23;8.85;;;20.10;99.90;;;;;;6154840;23;20025;-83
2022/07/30 08:19:45;;;;;;;14.70;9.20;;;19.90;99.90;;;;;;6151326;23;20342;-83
2022/07/30 08:22:26;;;;;;;13.85;8.68;;;20.00;99.90;;;;;;6154571;23;20024;-83
2022/07/30 08:24:52;;;;;;;14.40;8.85;;;20.00;99.90;;;;;;6152595;23;20021;-83
2022/07/30 08:27:18;;;;;;;16.70;9.77;;;20.20;99.90;;;;;;6152058;23;20096;-83
2022/07/30 08:29:43;;;;;;;17.65;9.60;;;20.70;99.90;;;;;;6152055;23;20017;-83
2022/07/30 08:32:09;;;;;;;14.88;9.10;;;20.20;99.90;;;;;;6153592;23;20090;-83
2022/07/30 08:34:40;;;;;;;15.23;9.25;;;20.80;99.90;;;;;;6154466;23;20319;-83
2022/07/30 08:37:06;;;;;;;16.77;9.07;;;20.70;99.90;;;;;;6152234;23;20073;-82
2022/07/30 08:39:44;;;;;;;16.95;9.38;;;20.60;99.90;;;;;;6153780;23;20014;-83
2022/07/30 08:42:36;;;;;;;15.63;8.80;;;20.70;99.90;;;;;;6153177;23;20472;-83
2022/07/30 08:45:02;;;;;;;16.50;9.30;;;20.50;99.90;;;;;;6097496;23;20028;-83
2022/07/30 08:47:48;;;;;;;14.25;9.52;;;20.50;99.90;;;;;;6153854;23;20018;-82
2022/07/30 08:50:18;;;;;;;13.63;8.48;;;20.40;99.90;;;;;;6154180;23;20450;-83
2022/07/30 08:52:44;;;;;;;12.90;8.25;;;21.20;99.90;;;;;;6154203;23;20029;-82
2022/07/30 08:55:10;;;;;;;15.52;7.70;;;20.30;99.90;;;;;;6152534;23;20072;-83
2022/07/30 08:57:54;;;;;;;14.88;8.20;;;20.30;99.90;;;;;;6152992;23;20021;-84
2022/07/30 09:00:26;;;;;;;15.50;8.98;;;20.20;99.90;;;;;;6153388;23;20072;-83
2022/07/30 09:03:00;;;;;;;12.73;7.82;;;20.40;99.90;;;;;;6152794;23;20018;-83
2022/07/30 09:05:29;;;;;;;12.80;7.10;;;20.90;99.90;;;;;;6155175;23;20021;-84
2022/07/30 09:07:54;;;;;;;13.45;7.75;;;20.80;99.90;;;;;;6152123;23;20018;-83
2022/07/30 09:10:29;;;;;;;15.45;8.10;;;20.80;99.90;;;;;;6152752;23;20060;-82
2022/07/30 09:13:24;;;;;;;14.35;7.38;;;21.00;99.90;;;;;;6153469;23;20434;-83
2022/07/30 09:16:06;;;;;;;13.07;6.68;;;21.00;99.90;;;;;;6153050;23;20443;-83
2022/07/30 09:18:39;;;;;;;10.05;5.93;;;21.20;99.90;;;;;;6153091;23;20013;-82
2022/07/30 09:21:23;;;;;;;11.55;6.20;;;21.40;99.90;;;;;;6152870;23;20021;-83
2022/07/30 09:24:11;;;;;;;15.07;6.47;;;21.60;99.90;;;;;;6154578;23;20394;-82
2022/07/30 09:27:00;;;;;;;12.95;5.93;;;22.30;99.90;;;;;;6153263;23;20025;-82
2022/07/30 09:29:28;;;;;;;13.68;6.55;;;21.60;99.90;;;;;;6152257;23;20100;-81
2022/07/30 09:32:04;;;;;;;12.10;6.05;;;21.70;99.90;;;;;;6153007;23;20063;-83
2022/07/30 09:34:32;;;;;;;10.00;5.25;;;21.80;99.90;;;;;;6154697;23;20082;-82
2022/07/30 09:37:04;;;;;;;9.88;4.97;;;21.90;99.90;;;;;;6153758;23;20021;-81
2022/07/30 09:39:38;;;;;;;11.07;4.97;;;22.00;99.90;;;;;;6154746;23;20014;-80
2022/07/30 09:42:20;;;;;;;11.30;5.20;;;22.10;99.90;;;;;;6155076;23;20021;-80
2022/07/30 09:44:47;;;;;;;11.68;4.75;;;22.20;99.90;;;;;;6153847;23;20097;-80
2022/07/30 09:47:33;;;;;;;12.43;5.32;;;22.40;99.90;;;;;;6153097;23;20021;-80
2022/07/30 09:50:06;;;;;;;10.20;4.82;;;22.50;99.90;;;;;;6153447;23;20017;-80
2022/07/30 09:52:32;;;;;;;12.45;4.65;;;22.70;99.90;;;;;;6156807;23;20044;-80
2022/07/30 09:54:58;;;;;;;10.35;5.10;;;23.00;99.90;;;;;;6156240;23;20330;-80
2022/07/30 09:57:23;;;;;;;12.65;5.40;;;23.10;99.90;;;;;;6154392;23;20492;-80
2022/07/30 09:59:49;;;;;;;14.38;5.53;;;23.10;99.90;;;;;;6155190;23;20021;-80
2022/07/30 10:02:14;;;;;;;12.52;4.90;;;23.10;99.90;;;;;;6156032;23;20338;-80
2022/07/30 10:04:40;;;;;;;10.40;4.60;;;23.30;99.90;;;;;;6154552;23;20165;-79
2022/07/30 10:07:20;;;;;;;11.07;4.63;;;23.50;99.90;;;;;;6154907;23;20017;-81
2022/07/30 10:09:47;;;;;;;11.30;5.55;;;23.60;99.90;;;;;;6154670;23;20454;-81
2022/07/30 10:12:14;;;;;;;9.70;4.40;;;23.60;99.90;;;;;;6154306;23;20060;-82
2022/07/30 10:14:43;;;;;;;10.15;4.10;;;23.60;99.90;;;;;;6154904;23;20009;-81
2022/07/30 10:17:09;;;;;;;10.60;4.30;;;23.70;99.90;;;;;;6154856;23;20362;-81
2022/07/30 10:19:35;;;;;;;10.05;4.00;;;23.80;99.90;;;;;;6153835;23;20010;-81
2022/07/30 10:22:02;;;;;;;9.20;4.13;;;24.20;99.90;;;;;;6156150;23;20018;-81
2022/07/30 10:24:30;;;;;;;11.00;4.03;;;23.90;99.90;;;;;;6156471;23;20017;-81
2022/07/30 10:26:56;;;;;;;11.18;4.70;;;24.00;99.90;;;;;;6155126;23;20014;-81
2022/07/30 10:29:22;;;;;;;9.48;4.03;;;24.10;99.90;;;;;;6154520;23;20124;-82
2022/07/30 10:31:49;;;;;;;9.93;3.60;;;24.20;99.90;;;;;;6153320;23;20017;-82
2022/07/30 10:34:27;;;;;;;8.82;3.50;;;24.40;99.90;;;;;;6153809;23;20397;-82
2022/07/30 10:36:57;;;;;;;11.45;3.85;;;24.60;99.90;;;;;;6152243;23;20385;-83
2022/07/30 10:40:13;;;;;;;9.65;3.60;;;24.80;99.90;;;;;;6153715;23;20017;-82
2022/07/30 10:43:07;;;;;;;12.70;3.70;;;24.70;99.90;;;;;;6013957;23;20452;-82
2022/07/30 10:45:48;;;;;;;10.27;3.50;;;24.70;99.90;;;;;;6156138;23;20385;-81
2022/07/30 10:48:15;;;;;;;9.73;3.40;;;24.90;99.90;;;;;;6156279;23;20045;-81
2022/07/30 10:50:53;;;;;;;9.80;4.00;;;25.00;99.90;;;;;;6156361;23;20014;-81
2022/07/30 10:53:48;;;;;;;11.00;3.60;;;25.10;99.90;;;;;;6153483;23;20025;-81
2022/07/30 10:56:22;;;;;;;9.30;3.20;;;25.10;99.90;;;;;;6130989;23;20025;-81
2022/07/30 10:59:09;;;;;;;11.40;3.20;;;24.90;99.90;;;;;;6155583;23;20089;-81
2022/07/30 11:01:47;;;;;;;10.80;3.20;;;25.00;99.90;;;;;;6155044;23;20024;-82
2022/07/30 11:04:23;;;;;;;9.77;3.20;;;24.80;99.90;;;;;;6154131;23;20014;-82
2022/07/30 11:06:50;;;;;;;9.82;3.60;;;24.90;99.90;;;;;;6153880;23;20108;-82
2022/07/30 11:09:36;;;;;;;9.60;3.30;;;25.10;99.90;;;;;;6153994;23;20021;-81
2022/07/30 11:12:06;;;;;;;8.02;3.17;;;25.40;99.90;;;;;;6155722;23;20014;-79
2022/07/30 11:14:47;;;;;;;8.88;3.20;;;25.60;99.90;;;;;;6154927;23;20450;-81
2022/07/30 11:17:14;;;;;;;9.15;2.70;;;26.00;99.90;;;;;;6153979;23;20055;-80
2022/07/30 11:20:08;;;;;;;9.73;2.80;;;26.20;99.90;;;;;;6155521;23;20013;-83
2022/07/30 11:22:43;;;;;;;7.40;2.92;;;26.10;97.20;;;;;;6153185;23;20410;-82
2022/07/30 11:25:29;;;;;;;10.35;3.28;;;26.20;99.90;;;;;;6156050;23;20076;-81
2022/07/30 11:27:55;;;;;;;12.02;3.33;;;26.30;99.10;;;;;;6155132;23;20092;-81
2022/07/30 11:30:21;;;;;;;8.68;2.97;;;26.40;99.90;;;;;;6155117;23;20022;-82
2022/07/30 11:33:15;;;;;;;9.32;3.50;;;26.60;99.60;;;;;;6155495;23;20083;-81
2022/07/30 11:35:42;;;;;;;8.80;3.00;;;26.60;97.60;;;;;;6150951;23;20025;-81
2022/07/30 11:38:14;;;;;;;10.23;2.90;;;26.50;97.40;;;;;;6156003;23;20057;-81
2022/07/30 11:40:47;;;;;;;9.35;2.75;;;26.30;96.40;;;;;;6153871;23;20050;-82
2022/07/30 11:43:32;;;;;;;8.30;3.00;;;26.30;96.40;;;;;;6153400;23;20352;-82
2022/07/30 11:46:21;;;;;;;8.90;3.00;;;26.10;95.60;;;;;;6153720;23;20017;-81
2022/07/30 11:48:58;;;;;;;11.10;3.25;;;26.10;94.90;;;;;;6154813;23;20342;-81
2022/07/30 11:51:24;;;;;;;8.90;3.20;;;26.30;96.40;;;;;;6155346;23;20096;-82
2022/07/30 11:54:02;;;;;;;8.27;3.03;;;26.50;96.20;;;;;;6153997;23;20010;-82
2022/07/30 11:56:28;;;;;;;9.05;3.35;;;26.70;95.60;;;;;;6154993;23;20100;-84
2022/07/30 11:59:04;;;;;;;9.73;3.35;;;26.80;96.50;;;;;;6155477;23;20037;-85
2022/07/30 12:02:21;;;;;;;10.68;3.22;;;26.90;96.40;;;;;;6151725;23;20017;-82
2022/07/30 12:04:46;;;;;;;9.10;2.92;;;26.80;94.40;;;;;;6150880;23;20025;-83
2022/07/30 12:07:20;;;;;;;8.30;2.97;;;26.90;96.10;;;;;;6153058;23;20061;-82
2022/07/30 12:09:45;;;;;;;11.38;3.38;;;27.00;95.60;;;;;;6153131;23;20016;-82
2022/07/30 12:12:30;;;;;;;8.05;2.88;;;27.00;94.00;;;;;;6152813;23;20096;-84
2022/07/30 12:14:56;;;;;;;8.38;2.97;;;27.20;94.30;;;;;;6154377;23;20442;-82
2022/07/30 12:17:48;;;;;;;7.65;2.80;;;27.10;94.80;;;;;;6152392;23;20100;-83
2022/07/30 12:20:32;;;;;;;7.85;2.88;;;27.30;94.70;;;;;;6153408;23;20446;-84
2022/07/30 12:22:58;;;;;;;8.52;2.90;;;27.40;93.50;;;;;;6153200;23;20387;-83
2022/07/30 12:25:31;;;;;;;9.23;2.90;;;27.30;93.80;;;;;;6152347;23;20024;-82
2022/07/30 12:28:06;;;;;;;7.72;2.80;;;27.50;92.70;;;;;;6153228;23;20064;-84
2022/07/30 12:30:37;;;;;;;7.70;2.60;;;27.40;92.40;;;;;;6153565;23;20021;-83
2022/07/30 12:33:09;;;;;;;9.68;3.08;;;27.40;92.20;;;;;;6152393;23;20029;-83
2022/07/30 12:35:49;;;;;;;12.30;3.20;;;27.10;92.60;;;;;;6152842;23;20014;-82
2022/07/30 12:38:44;;;;;;;8.98;2.95;;;26.90;93.20;;;;;;6153452;23;20049;-82
2022/07/30 12:41:40;;;;;;;8.73;3.10;;;26.90;93.00;;;;;;6155212;23;20439;-83
2022/07/30 12:44:16;;;;;;;;;;;;;;;;;;;;;
2022/07/30 12:47:23;;;;;;;9.98;2.97;;;26.60;93.00;;;;;;6152067;23;20084;-82
2022/07/30 12:50:15;;;;;;;9.82;3.40;;;26.50;92.70;;;;;;6152700;23;20013;-82
2022/07/30 12:53:09;;;;;;;7.75;2.90;;;26.60;92.70;;;;;;6154419;23;20018;-85
2022/07/30 12:55:40;;;;;;;9.13;3.10;;;26.90;93.30;;;;;;6153266;23;20022;-83